BIK weather

Frans Kaisiepo Airport
Biak-Supiori Island, Papua, Indonesia

Public forecast

Using degrees Celsius for public forecast. Weather courtesy of forecast.io.

Current aviation weather report (METAR) for Frans Kaisiepo Airport

Retrieved 2020/02/27 11:00 UTC (23 minutes ago):

WABB 271100Z 03003KT 9999 FEW018 28/24 Q1008 NOSIG

Aviation forecast (TAF) for Frans Kaisiepo Airport

Retrieved 2020/02/27 06:07 UTC (5 hours ago):

TAF WABB 270500Z 2706/2812 25006KT 9999 SCT018 BECMG 2710/2712 32005KT